CheckWX is a tool to help pilots better visualize weather data.  It is not intended as a substitute for an official pre-flight weather briefing.

21:07:58 UTC

KSUZ METAR
Saline County Regional Airport
Benton, Arkansas, USA
Current

33 mins ago

KSUZ 232035Z AUTO 21006G13KT 10SM FEW042 25/14 A3000 RMK A01
Observed
Apr-23 @ 20:35 UTC
Wind
  • 210° at 6 KTS
  • Gusting to 13 KTS
Visibility
10 SM
Flight Rules
VFR
Cloud Levels
  • Few at 4,200' AGL
Temperature
25°C / 77°F
Dewpoint
14°C / 57°F
Humidity
51%
Altimeter
30" Hg
Pressure
1015.92 hPa
Previous

53 mins ago

KSUZ 232015Z AUTO 24008G13KT 210V270 10SM FEW041 25/14 A3001 RMK A01
Observed
Apr-23 @ 20:15 UTC
Wind
  • 240° at 8 KTS
  • Gusting to 13 KTS
Visibility
10 SM
Flight Rules
VFR
Cloud Levels
  • Few at 4,100' AGL
Temperature
25°C / 77°F
Dewpoint
14°C / 57°F
Humidity
51%
Altimeter
30.01" Hg
Pressure
1016.22 hPa
Previous

1 hour ago

KSUZ 231955Z AUTO 18010KT 10SM BKN039 BKN045 25/14 A3001 RMK A01
Observed
Apr-23 @ 19:55 UTC
Wind
  • 180° at 10 KTS
Visibility
10 SM
Flight Rules
VFR
Cloud Levels
  • Broken at 3,900' AGL
  • Broken at 4,500' AGL
Temperature
25°C / 77°F
Dewpoint
14°C / 57°F
Humidity
51%
Altimeter
30.01" Hg
Pressure
1016.22 hPa